sensor_id;sensor_type;location;lat;lon;timestamp;temperature;humidity
55008;DHT22;40902;45.116;21.296;2023-04-19T00:01:26;332.90;2329.60
55008;DHT22;40902;45.116;21.296;2023-04-19T00:03:53;332.80;2329.60
55008;DHT22;40902;45.116;21.296;2023-04-19T00:06:19;332.80;2329.60
55008;DHT22;40902;45.116;21.296;2023-04-19T00:08:45;332.80;2329.60
55008;DHT22;40902;45.116;21.296;2023-04-19T00:11:11;332.80;2329.60
55008;DHT22;40902;45.116;21.296;2023-04-19T00:13:36;308.10;2304.00
55008;DHT22;40902;45.116;21.296;2023-04-19T00:16:03;308.10;2304.00
55008;DHT22;40902;45.116;21.296;2023-04-19T00:18:28;308.10;2304.00
55008;DHT22;40902;45.116;21.296;2023-04-19T00:20:54;308.10;2304.00
55008;DHT22;40902;45.116;21.296;2023-04-19T00:23:21;308.10;2304.00
55008;DHT22;40902;45.116;21.296;2023-04-19T00:25:48;308.10;2304.00
55008;DHT22;40902;45.116;21.296;2023-04-19T00:28:14;308.10;2304.00
55008;DHT22;40902;45.116;21.296;2023-04-19T00:30:40;308.10;2304.00
55008;DHT22;40902;45.116;21.296;2023-04-19T00:33:06;308.10;2304.00
55008;DHT22;40902;45.116;21.296;2023-04-19T00:35:38;308.00;2304.00
55008;DHT22;40902;45.116;21.296;2023-04-19T00:38:05;308.00;2304.00
55008;DHT22;40902;45.116;21.296;2023-04-19T00:40:31;308.10;2304.00
55008;DHT22;40902;45.116;21.296;2023-04-19T00:42:57;308.00;2304.00
55008;DHT22;40902;45.116;21.296;2023-04-19T00:45:23;308.00;2304.00
55008;DHT22;40902;45.116;21.296;2023-04-19T00:47:49;308.00;2304.00
55008;DHT22;40902;45.116;21.296;2023-04-19T00:52:42;333.00;2329.60
55008;DHT22;40902;45.116;21.296;2023-04-19T00:55:09;308.10;2304.00
55008;DHT22;40902;45.116;21.296;2023-04-19T00:57:36;308.00;2304.00
55008;DHT22;40902;45.116;21.296;2023-04-19T01:00:02;307.90;2304.00
55008;DHT22;40902;45.116;21.296;2023-04-19T01:02:31;308.10;2304.00
55008;DHT22;40902;45.116;21.296;2023-04-19T01:04:57;308.00;2304.00
55008;DHT22;40902;45.116;21.296;2023-04-19T01:07:22;307.80;2304.00
55008;DHT22;40902;45.116;21.296;2023-04-19T01:09:48;307.80;2304.00
55008;DHT22;40902;45.116;21.296;2023-04-19T01:12:14;307.90;2304.00
55008;DHT22;40902;45.116;21.296;2023-04-19T01:14:40;307.90;2304.00
55008;DHT22;40902;45.116;21.296;2023-04-19T01:17:06;307.90;2304.00
55008;DHT22;40902;45.116;21.296;2023-04-19T01:19:33;307.90;2304.00
55008;DHT22;40902;45.116;21.296;2023-04-19T01:22:03;307.90;2304.00
55008;DHT22;40902;45.116;21.296;2023-04-19T01:24:29;307.70;2304.00
55008;DHT22;40902;45.116;21.296;2023-04-19T01:26:55;307.80;2304.00
55008;DHT22;40902;45.116;21.296;2023-04-19T01:29:21;307.70;2304.00
55008;DHT22;40902;45.116;21.296;2023-04-19T01:31:47;307.80;2304.00
55008;DHT22;40902;45.116;21.296;2023-04-19T01:34:21;307.70;2304.00
55008;DHT22;40902;45.116;21.296;2023-04-19T01:36:49;307.70;2304.00
55008;DHT22;40902;45.116;21.296;2023-04-19T01:39:15;307.70;2304.00
55008;DHT22;40902;45.116;21.296;2023-04-19T01:41:41;307.80;2304.00
55008;DHT22;40902;45.116;21.296;2023-04-19T01:44:06;307.70;2304.00
55008;DHT22;40902;45.116;21.296;2023-04-19T01:46:32;307.70;2304.00
55008;DHT22;40902;45.116;21.296;2023-04-19T01:48:58;307.80;2304.00
55008;DHT22;40902;45.116;21.296;2023-04-19T01:51:23;307.80;2304.00
55008;DHT22;40902;45.116;21.296;2023-04-19T01:53:50;307.80;2304.00
55008;DHT22;40902;45.116;21.296;2023-04-19T01:56:18;307.80;2304.00
55008;DHT22;40902;45.116;21.296;2023-04-19T01:58:44;307.90;2304.00
55008;DHT22;40902;45.116;21.296;2023-04-19T02:01:10;307.90;2304.00
55008;DHT22;40902;45.116;21.296;2023-04-19T02:03:37;307.80;2304.00
55008;DHT22;40902;45.116;21.296;2023-04-19T02:06:03;307.90;2304.00
55008;DHT22;40902;45.116;21.296;2023-04-19T02:08:29;307.90;2304.00
55008;DHT22;40902;45.116;21.296;2023-04-19T02:10:55;307.80;2304.00
55008;DHT22;40902;45.116;21.296;2023-04-19T02:13:20;307.80;2304.00
55008;DHT22;40902;45.116;21.296;2023-04-19T02:15:46;307.70;2304.00
55008;DHT22;40902;45.116;21.296;2023-04-19T02:18:12;307.70;2304.00
55008;DHT22;40902;45.116;21.296;2023-04-19T02:20:38;307.70;2304.00
55008;DHT22;40902;45.116;21.296;2023-04-19T02:23:04;307.70;2304.00
55008;DHT22;40902;45.116;21.296;2023-04-19T02:25:30;307.80;2304.00
55008;DHT22;40902;45.116;21.296;2023-04-19T02:27:55;307.80;2304.00
55008;DHT22;40902;45.116;21.296;2023-04-19T02:30:21;307.70;2304.00
55008;DHT22;40902;45.116;21.296;2023-04-19T02:32:50;307.80;2304.00
55008;DHT22;40902;45.116;21.296;2023-04-19T02:35:15;307.60;2304.00
55008;DHT22;40902;45.116;21.296;2023-04-19T02:37:41;307.60;2304.00
55008;DHT22;40902;45.116;21.296;2023-04-19T02:40:07;307.60;2304.00
55008;DHT22;40902;45.116;21.296;2023-04-19T02:42:33;307.60;2304.00
55008;DHT22;40902;45.116;21.296;2023-04-19T03:16:39;308.00;2304.00
55008;DHT22;40902;45.116;21.296;2023-04-19T03:19:06;307.90;2304.00
55008;DHT22;40902;45.116;21.296;2023-04-19T03:21:31;307.60;2304.00
55008;DHT22;40902;45.116;21.296;2023-04-19T03:23:57;307.60;2304.00
55008;DHT22;40902;45.116;21.296;2023-04-19T03:26:23;307.60;2304.00
55008;DHT22;40902;45.116;21.296;2023-04-19T03:28:48;307.60;2304.00
55008;DHT22;40902;45.116;21.296;2023-04-19T03:31:14;307.70;2304.00
55008;DHT22;40902;45.116;21.296;2023-04-19T03:33:40;307.80;2304.00
55008;DHT22;40902;45.116;21.296;2023-04-19T03:36:06;307.80;2304.00
55008;DHT22;40902;45.116;21.296;2023-04-19T03:38:31;307.80;2304.00
55008;DHT22;40902;45.116;21.296;2023-04-19T03:40:57;307.80;2304.00
55008;DHT22;40902;45.116;21.296;2023-04-19T03:43:23;307.90;2304.00
55008;DHT22;40902;45.116;21.296;2023-04-19T03:45:49;307.90;2304.00
55008;DHT22;40902;45.116;21.296;2023-04-19T03:48:15;307.90;2304.00
55008;DHT22;40902;45.116;21.296;2023-04-19T03:50:41;307.90;2304.00
55008;DHT22;40902;45.116;21.296;2023-04-19T03:53:06;307.90;2304.00
55008;DHT22;40902;45.116;21.296;2023-04-19T03:55:32;307.90;2304.00
55008;DHT22;40902;45.116;21.296;2023-04-19T03:57:58;308.00;2304.00
55008;DHT22;40902;45.116;21.296;2023-04-19T04:00:23;308.00;2304.00
55008;DHT22;40902;45.116;21.296;2023-04-19T04:02:50;308.00;2304.00
55008;DHT22;40902;45.116;21.296;2023-04-19T04:05:16;307.90;2304.00
55008;DHT22;40902;45.116;21.296;2023-04-19T04:07:41;307.90;2304.00
55008;DHT22;40902;45.116;21.296;2023-04-19T04:10:07;308.00;2304.00
55008;DHT22;40902;45.116;21.296;2023-04-19T04:12:33;308.00;2304.00
55008;DHT22;40902;45.116;21.296;2023-04-19T04:14:59;308.00;2304.00
55008;DHT22;40902;45.116;21.296;2023-04-19T04:17:25;308.00;2304.00
55008;DHT22;40902;45.116;21.296;2023-04-19T04:19:50;308.10;2304.00
55008;DHT22;40902;45.116;21.296;2023-04-19T04:22:16;308.00;2304.00
55008;DHT22;40902;45.116;21.296;2023-04-19T04:24:42;308.10;2304.00
55008;DHT22;40902;45.116;21.296;2023-04-19T04:27:08;308.10;2304.00
55008;DHT22;40902;45.116;21.296;2023-04-19T04:29:38;308.10;2304.00
55008;DHT22;40902;45.116;21.296;2023-04-19T04:32:06;332.80;2329.60
55008;DHT22;40902;45.116;21.296;2023-04-19T04:34:35;332.90;2329.60
55008;DHT22;40902;45.116;21.296;2023-04-19T04:37:02;333.00;2329.60
55008;DHT22;40902;45.116;21.296;2023-04-19T04:39:29;333.00;2329.60
55008;DHT22;40902;45.116;21.296;2023-04-19T04:41:56;333.00;2329.60
55008;DHT22;40902;45.116;21.296;2023-04-19T04:44:24;333.10;2329.60
55008;DHT22;40902;45.116;21.296;2023-04-19T04:46:50;333.20;2329.60
55008;DHT22;40902;45.116;21.296;2023-04-19T04:49:16;333.20;2329.60
55008;DHT22;40902;45.116;21.296;2023-04-19T04:51:41;333.20;2329.60
55008;DHT22;40902;45.116;21.296;2023-04-19T04:54:07;333.30;2329.60
55008;DHT22;40902;45.116;21.296;2023-04-19T04:56:33;333.40;2329.60
55008;DHT22;40902;45.116;21.296;2023-04-19T04:58:58;333.40;2329.60
55008;DHT22;40902;45.116;21.296;2023-04-19T05:01:24;333.50;2329.60
55008;DHT22;40902;45.116;21.296;2023-04-19T05:03:50;333.50;2329.60
55008;DHT22;40902;45.116;21.296;2023-04-19T05:06:16;333.50;2329.60
55008;DHT22;40902;45.116;21.296;2023-04-19T05:08:43;333.50;2329.60
55008;DHT22;40902;45.116;21.296;2023-04-19T05:11:09;333.50;2329.60
55008;DHT22;40902;45.116;21.296;2023-04-19T05:13:34;333.50;2329.60
55008;DHT22;40902;45.116;21.296;2023-04-19T05:16:00;333.60;2329.60
55008;DHT22;40902;45.116;21.296;2023-04-19T05:18:26;333.70;2329.60
55008;DHT22;40902;45.116;21.296;2023-04-19T05:20:52;333.70;2329.60
55008;DHT22;40902;45.116;21.296;2023-04-19T05:23:18;333.60;2329.60
55008;DHT22;40902;45.116;21.296;2023-04-19T05:25:43;333.60;2329.60
55008;DHT22;40902;45.116;21.296;2023-04-19T05:28:09;333.50;2329.60
55008;DHT22;40902;45.116;21.296;2023-04-19T05:30:35;333.50;2329.60
55008;DHT22;40902;45.116;21.296;2023-04-19T05:33:00;333.50;2329.60
55008;DHT22;40902;45.116;21.296;2023-04-19T05:35:26;333.40;2329.60
55008;DHT22;40902;45.116;21.296;2023-04-19T05:37:52;333.30;2329.60
55008;DHT22;40902;45.116;21.296;2023-04-19T05:40:17;333.20;2329.60
55008;DHT22;40902;45.116;21.296;2023-04-19T05:42:43;333.20;2329.60
55008;DHT22;40902;45.116;21.296;2023-04-19T05:45:09;333.20;2329.60
55008;DHT22;40902;45.116;21.296;2023-04-19T05:47:35;333.20;2329.60
55008;DHT22;40902;45.116;21.296;2023-04-19T05:50:02;333.20;2329.60
55008;DHT22;40902;45.116;21.296;2023-04-19T05:52:28;333.10;2329.60
55008;DHT22;40902;45.116;21.296;2023-04-19T05:54:54;333.00;2329.60
55008;DHT22;40902;45.116;21.296;2023-04-19T05:57:20;333.00;2329.60
55008;DHT22;40902;45.116;21.296;2023-04-19T05:59:45;333.00;2329.60
55008;DHT22;40902;45.116;21.296;2023-04-19T06:02:11;333.10;2329.60
55008;DHT22;40902;45.116;21.296;2023-04-19T06:04:37;333.00;2329.60
55008;DHT22;40902;45.116;21.296;2023-04-19T06:07:02;333.10;2329.60
55008;DHT22;40902;45.116;21.296;2023-04-19T06:09:28;333.10;2329.60
55008;DHT22;40902;45.116;21.296;2023-04-19T06:11:54;333.20;2329.60
55008;DHT22;40902;45.116;21.296;2023-04-19T06:14:21;333.10;2329.60
55008;DHT22;40902;45.116;21.296;2023-04-19T06:16:47;333.10;2329.60
55008;DHT22;40902;45.116;21.296;2023-04-19T06:19:12;333.10;2329.60
55008;DHT22;40902;45.116;21.296;2023-04-19T06:21:38;333.20;2329.60
55008;DHT22;40902;45.116;21.296;2023-04-19T06:24:05;333.20;2329.60
55008;DHT22;40902;45.116;21.296;2023-04-19T06:26:31;333.20;2329.60
55008;DHT22;40902;45.116;21.296;2023-04-19T06:28:57;333.30;2329.60
55008;DHT22;40902;45.116;21.296;2023-04-19T06:31:23;333.30;2329.60
55008;DHT22;40902;45.116;21.296;2023-04-19T06:33:49;333.40;2329.60
55008;DHT22;40902;45.116;21.296;2023-04-19T06:36:15;333.50;2329.60
55008;DHT22;40902;45.116;21.296;2023-04-19T06:38:41;333.50;2329.60
55008;DHT22;40902;45.116;21.296;2023-04-19T06:41:09;333.50;2329.60
55008;DHT22;40902;45.116;21.296;2023-04-19T06:43:35;333.50;2329.60
55008;DHT22;40902;45.116;21.296;2023-04-19T06:46:01;333.50;2329.60
55008;DHT22;40902;45.116;21.296;2023-04-19T06:48:29;333.50;2329.60
55008;DHT22;40902;45.116;21.296;2023-04-19T06:50:55;333.40;2329.60
55008;DHT22;40902;45.116;21.296;2023-04-19T06:53:21;333.30;2329.60
55008;DHT22;40902;45.116;21.296;2023-04-19T06:55:47;333.20;2329.60
55008;DHT22;40902;45.116;21.296;2023-04-19T06:58:12;333.10;2329.60
55008;DHT22;40902;45.116;21.296;2023-04-19T07:00:38;333.10;2329.60
55008;DHT22;40902;45.116;21.296;2023-04-19T07:03:04;333.10;2329.60
55008;DHT22;40902;45.116;21.296;2023-04-19T07:05:30;333.10;2329.60
55008;DHT22;40902;45.116;21.296;2023-04-19T07:07:56;333.20;2329.60
55008;DHT22;40902;45.116;21.296;2023-04-19T07:10:22;333.30;2329.60
55008;DHT22;40902;45.116;21.296;2023-04-19T07:12:48;333.50;2329.60
55008;DHT22;40902;45.116;21.296;2023-04-19T07:15:14;333.50;2329.60
55008;DHT22;40902;45.116;21.296;2023-04-19T07:17:39;333.50;2329.60
55008;DHT22;40902;45.116;21.296;2023-04-19T07:20:06;333.60;2329.60
55008;DHT22;40902;45.116;21.296;2023-04-19T07:22:32;333.70;2329.60
55008;DHT22;40902;45.116;21.296;2023-04-19T07:24:58;333.70;2329.60
55008;DHT22;40902;45.116;21.296;2023-04-19T07:27:24;333.70;2329.60
55008;DHT22;40902;45.116;21.296;2023-04-19T07:29:51;333.70;2329.60
55008;DHT22;40902;45.116;21.296;2023-04-19T07:32:17;333.60;2329.60
55008;DHT22;40902;45.116;21.296;2023-04-19T07:34:43;333.50;2329.60
55008;DHT22;40902;45.116;21.296;2023-04-19T07:37:10;333.50;2329.60
55008;DHT22;40902;45.116;21.296;2023-04-19T07:39:37;333.60;2329.60
55008;DHT22;40902;45.116;21.296;2023-04-19T07:42:02;333.70;2329.60
55008;DHT22;40902;45.116;21.296;2023-04-19T07:44:28;358.40;2329.60
55008;DHT22;40902;45.116;21.296;2023-04-19T07:46:54;358.40;2329.60
55008;DHT22;40902;45.116;21.296;2023-04-19T07:49:19;358.40;2329.60
55008;DHT22;40902;45.116;21.296;2023-04-19T07:51:45;358.40;2329.60
55008;DHT22;40902;45.116;21.296;2023-04-19T07:54:11;358.50;2329.60
55008;DHT22;40902;45.116;21.296;2023-04-19T07:56:37;358.40;2329.60
55008;DHT22;40902;45.116;21.296;2023-04-19T07:59:02;358.40;2329.60
55008;DHT22;40902;45.116;21.296;2023-04-19T08:01:29;358.40;2329.60
55008;DHT22;40902;45.116;21.296;2023-04-19T08:03:54;358.50;2329.60
55008;DHT22;40902;45.116;21.296;2023-04-19T08:06:20;358.60;2329.60
55008;DHT22;40902;45.116;21.296;2023-04-19T08:08:47;358.60;2329.60
55008;DHT22;40902;45.116;21.296;2023-04-19T08:11:12;358.90;2329.60
55008;DHT22;40902;45.116;21.296;2023-04-19T08:13:38;358.70;2329.60
55008;DHT22;40902;45.116;21.296;2023-04-19T08:16:04;358.70;2329.60
55008;DHT22;40902;45.116;21.296;2023-04-19T08:20:56;359.00;2329.60
55008;DHT22;40902;45.116;21.296;2023-04-19T08:23:23;358.70;2329.60
55008;DHT22;40902;45.116;21.296;2023-04-19T08:25:49;358.80;2329.60
55008;DHT22;40902;45.116;21.296;2023-04-19T08:28:16;359.00;2329.60
55008;DHT22;40902;45.116;21.296;2023-04-19T08:30:42;359.10;2329.60
55008;DHT22;40902;45.116;21.296;2023-04-19T08:40:29;384.10;2329.60
55008;DHT22;40902;45.116;21.296;2023-04-19T08:42:56;359.10;2329.60
55008;DHT22;40902;45.116;21.296;2023-04-19T08:45:26;359.10;2329.60
55008;DHT22;40902;45.116;21.296;2023-04-19T08:47:52;359.10;2329.60
55008;DHT22;40902;45.116;21.296;2023-04-19T08:50:19;359.10;2329.60
55008;DHT22;40902;45.116;21.296;2023-04-19T08:52:46;359.20;2329.60
55008;DHT22;40902;45.116;21.296;2023-04-19T08:55:12;359.20;2329.60
55008;DHT22;40902;45.116;21.296;2023-04-19T08:57:39;359.00;2329.60
55008;DHT22;40902;45.116;21.296;2023-04-19T09:00:06;359.10;2329.60
55008;DHT22;40902;45.116;21.296;2023-04-19T09:02:46;359.00;2329.60
55008;DHT22;40902;45.116;21.296;2023-04-19T09:05:14;359.10;2329.60
55008;DHT22;40902;45.116;21.296;2023-04-19T09:07:40;359.20;2329.60
55008;DHT22;40902;45.116;21.296;2023-04-19T09:15:02;384.70;2329.60
55008;DHT22;40902;45.116;21.296;2023-04-19T09:17:36;384.40;2329.60
55008;DHT22;40902;45.116;21.296;2023-04-19T09:20:03;384.30;2329.60
55008;DHT22;40902;45.116;21.296;2023-04-19T09:22:29;384.40;2329.60
55008;DHT22;40902;45.116;21.296;2023-04-19T09:24:56;384.50;2329.60
55008;DHT22;40902;45.116;21.296;2023-04-19T09:27:31;384.60;2329.60
55008;DHT22;40902;45.116;21.296;2023-04-19T09:29:58;384.70;2329.60
55008;DHT22;40902;45.116;21.296;2023-04-19T09:32:25;384.80;2329.60
55008;DHT22;40902;45.116;21.296;2023-04-19T09:34:53;384.80;2329.60
55008;DHT22;40902;45.116;21.296;2023-04-19T09:37:19;384.80;2329.60
55008;DHT22;40902;45.116;21.296;2023-04-19T09:39:46;384.80;2329.60
55008;DHT22;40902;45.116;21.296;2023-04-19T09:42:11;384.80;2329.60
55008;DHT22;40902;45.116;21.296;2023-04-19T09:44:38;384.80;2329.60
55008;DHT22;40902;45.116;21.296;2023-04-19T09:47:21;384.90;2329.60
55008;DHT22;40902;45.116;21.296;2023-04-19T09:49:47;409.80;2355.20
55008;DHT22;40902;45.116;21.296;2023-04-19T09:52:28;409.80;2355.20
55008;DHT22;40902;45.116;21.296;2023-04-19T09:54:54;409.90;2355.20
55008;DHT22;40902;45.116;21.296;2023-04-19T09:57:20;410.40;2355.20
55008;DHT22;40902;45.116;21.296;2023-04-19T09:59:46;410.10;2355.20
55008;DHT22;40902;45.116;21.296;2023-04-19T10:02:12;409.80;2355.20
55008;DHT22;40902;45.116;21.296;2023-04-19T10:04:39;409.80;2355.20
55008;DHT22;40902;45.116;21.296;2023-04-19T10:07:06;410.00;2355.20
55008;DHT22;40902;45.116;21.296;2023-04-19T10:09:34;410.00;2355.20
55008;DHT22;40902;45.116;21.296;2023-04-19T10:12:01;410.00;2355.20
55008;DHT22;40902;45.116;21.296;2023-04-19T10:14:29;410.10;2355.20
55008;DHT22;40902;45.116;21.296;2023-04-19T10:17:00;410.10;2355.20
55008;DHT22;40902;45.116;21.296;2023-04-19T10:19:27;410.10;2355.20
55008;DHT22;40902;45.116;21.296;2023-04-19T10:21:53;410.10;2355.20
55008;DHT22;40902;45.116;21.296;2023-04-19T10:24:21;410.00;2355.20
55008;DHT22;40902;45.116;21.296;2023-04-19T10:27:07;410.00;2355.20
55008;DHT22;40902;45.116;21.296;2023-04-19T10:32:16;410.00;2355.20
55008;DHT22;40902;45.116;21.296;2023-04-19T10:34:42;410.00;2355.20
55008;DHT22;40902;45.116;21.296;2023-04-19T10:37:14;409.80;2355.20
55008;DHT22;40902;45.116;21.296;2023-04-19T10:39:41;409.90;2355.20
55008;DHT22;40902;45.116;21.296;2023-04-19T10:42:07;410.00;2355.20
55008;DHT22;40902;45.116;21.296;2023-04-19T10:44:33;410.10;2355.20
55008;DHT22;40902;45.116;21.296;2023-04-19T10:46:58;410.10;2355.20
55008;DHT22;40902;45.116;21.296;2023-04-19T10:49:27;410.10;2355.20
55008;DHT22;40902;45.116;21.296;2023-04-19T10:51:53;410.20;2355.20
55008;DHT22;40902;45.116;21.296;2023-04-19T10:54:36;410.40;2355.20
55008;DHT22;40902;45.116;21.296;2023-04-19T10:57:04;410.40;2355.20
55008;DHT22;40902;45.116;21.296;2023-04-19T10:59:34;410.50;2355.20
55008;DHT22;40902;45.116;21.296;2023-04-19T11:05:00;435.30;2355.20
55008;DHT22;40902;45.116;21.296;2023-04-19T11:07:26;435.30;2355.20
55008;DHT22;40902;45.116;21.296;2023-04-19T11:09:52;435.40;2355.20
55008;DHT22;40902;45.116;21.296;2023-04-19T11:12:19;435.30;2355.20
55008;DHT22;40902;45.116;21.296;2023-04-19T11:14:47;435.20;2355.20
55008;DHT22;40902;45.116;21.296;2023-04-19T11:17:23;410.50;2355.20
55008;DHT22;40902;45.116;21.296;2023-04-19T11:25:25;435.20;2355.20
55008;DHT22;40902;45.116;21.296;2023-04-19T11:27:51;435.20;2355.20
55008;DHT22;40902;45.116;21.296;2023-04-19T11:30:27;410.40;2355.20
55008;DHT22;40902;45.116;21.296;2023-04-19T11:32:54;410.30;2355.20
55008;DHT22;40902;45.116;21.296;2023-04-19T11:37:46;409.80;2355.20
55008;DHT22;40902;45.116;21.296;2023-04-19T11:40:19;384.90;2329.60
55008;DHT22;40902;45.116;21.296;2023-04-19T11:42:46;384.70;2329.60
55008;DHT22;40902;45.116;21.296;2023-04-19T11:45:28;384.50;2329.60
55008;DHT22;40902;45.116;21.296;2023-04-19T11:47:55;384.30;2329.60
55008;DHT22;40902;45.116;21.296;2023-04-19T11:55:38;359.30;2329.60
55008;DHT22;40902;45.116;21.296;2023-04-19T11:58:06;359.30;2329.60
55008;DHT22;40902;45.116;21.296;2023-04-19T12:00:34;359.30;2329.60
55008;DHT22;40902;45.116;21.296;2023-04-19T12:02:59;359.30;2329.60
55008;DHT22;40902;45.116;21.296;2023-04-19T12:05:26;359.20;2329.60
55008;DHT22;40902;45.116;21.296;2023-04-19T12:08:05;359.30;2329.60
55008;DHT22;40902;45.116;21.296;2023-04-19T12:10:34;359.30;2329.60
55008;DHT22;40902;45.116;21.296;2023-04-19T12:13:01;359.30;2329.60
55008;DHT22;40902;45.116;21.296;2023-04-19T12:15:45;384.00;2329.60
55008;DHT22;40902;45.116;21.296;2023-04-19T12:18:11;384.00;2329.60
55008;DHT22;40902;45.116;21.296;2023-04-19T12:20:42;384.10;2329.60
55008;DHT22;40902;45.116;21.296;2023-04-19T12:23:08;384.10;2329.60
55008;DHT22;40902;45.116;21.296;2023-04-19T12:25:35;384.20;2329.60
55008;DHT22;40902;45.116;21.296;2023-04-19T12:28:02;384.20;2329.60
55008;DHT22;40902;45.116;21.296;2023-04-19T12:30:28;384.20;2329.60
55008;DHT22;40902;45.116;21.296;2023-04-19T12:32:54;384.30;2329.60
55008;DHT22;40902;45.116;21.296;2023-04-19T12:35:26;384.30;2329.60
55008;DHT22;40902;45.116;21.296;2023-04-19T12:37:54;384.20;2329.60
55008;DHT22;40902;45.116;21.296;2023-04-19T12:40:20;384.20;2329.60
55008;DHT22;40902;45.116;21.296;2023-04-19T12:42:46;384.20;2329.60
55008;DHT22;40902;45.116;21.296;2023-04-19T12:45:12;384.30;2329.60
55008;DHT22;40902;45.116;21.296;2023-04-19T12:47:44;384.40;2329.60
55008;DHT22;40902;45.116;21.296;2023-04-19T12:50:11;384.40;2329.60
55008;DHT22;40902;45.116;21.296;2023-04-19T12:52:37;384.40;2329.60
55008;DHT22;40902;45.116;21.296;2023-04-19T12:55:03;384.40;2329.60
55008;DHT22;40902;45.116;21.296;2023-04-19T12:57:29;384.40;2329.60
55008;DHT22;40902;45.116;21.296;2023-04-19T12:59:55;384.40;2329.60
55008;DHT22;40902;45.116;21.296;2023-04-19T13:02:21;384.40;2329.60
55008;DHT22;40902;45.116;21.296;2023-04-19T13:04:46;384.50;2329.60
55008;DHT22;40902;45.116;21.296;2023-04-19T13:07:12;384.50;2329.60
55008;DHT22;40902;45.116;21.296;2023-04-19T13:09:38;384.70;2329.60
55008;DHT22;40902;45.116;21.296;2023-04-19T13:12:06;384.80;2329.60
55008;DHT22;40902;45.116;21.296;2023-04-19T13:14:32;384.80;2329.60
55008;DHT22;40902;45.116;21.296;2023-04-19T13:16:58;384.90;2329.60
55008;DHT22;40902;45.116;21.296;2023-04-19T13:19:24;409.70;2355.20
55008;DHT22;40902;45.116;21.296;2023-04-19T13:21:50;409.60;2355.20
55008;DHT22;40902;45.116;21.296;2023-04-19T13:24:15;409.60;2355.20
55008;DHT22;40902;45.116;21.296;2023-04-19T13:26:41;409.70;2355.20
55008;DHT22;40902;45.116;21.296;2023-04-19T13:29:07;409.70;2355.20
55008;DHT22;40902;45.116;21.296;2023-04-19T13:31:33;409.90;2355.20
55008;DHT22;40902;45.116;21.296;2023-04-19T13:33:59;410.10;2355.20
55008;DHT22;40902;45.116;21.296;2023-04-19T13:36:25;410.20;2355.20
55008;DHT22;40902;45.116;21.296;2023-04-19T13:38:52;410.30;2355.20
55008;DHT22;40902;45.116;21.296;2023-04-19T13:41:19;410.40;2355.20
55008;DHT22;40902;45.116;21.296;2023-04-19T13:43:45;410.40;2355.20
55008;DHT22;40902;45.116;21.296;2023-04-19T13:46:11;410.50;2355.20
55008;DHT22;40902;45.116;21.296;2023-04-19T13:48:37;435.30;2355.20
55008;DHT22;40902;45.116;21.296;2023-04-19T13:51:03;435.20;2355.20
55008;DHT22;40902;45.116;21.296;2023-04-19T13:53:29;435.30;2355.20
55008;DHT22;40902;45.116;21.296;2023-04-19T13:55:55;435.40;2355.20
55008;DHT22;40902;45.116;21.296;2023-04-19T13:58:21;435.30;2355.20
55008;DHT22;40902;45.116;21.296;2023-04-19T14:00:46;435.40;2355.20
55008;DHT22;40902;45.116;21.296;2023-04-19T14:03:12;435.40;2355.20
55008;DHT22;40902;45.116;21.296;2023-04-19T14:05:38;435.50;2355.20
55008;DHT22;40902;45.116;21.296;2023-04-19T14:08:04;435.60;2355.20
55008;DHT22;40902;45.116;21.296;2023-04-19T14:10:30;435.40;2355.20
55008;DHT22;40902;45.116;21.296;2023-04-19T14:12:56;435.40;2355.20
55008;DHT22;40902;45.116;21.296;2023-04-19T14:15:22;435.40;2355.20
55008;DHT22;40902;45.116;21.296;2023-04-19T14:17:49;435.40;2355.20
55008;DHT22;40902;45.116;21.296;2023-04-19T14:20:16;435.30;2355.20
55008;DHT22;40902;45.116;21.296;2023-04-19T14:22:42;435.30;2355.20
55008;DHT22;40902;45.116;21.296;2023-04-19T14:25:08;435.30;2355.20
55008;DHT22;40902;45.116;21.296;2023-04-19T14:27:34;435.30;2355.20
55008;DHT22;40902;45.116;21.296;2023-04-19T14:30:00;435.30;2355.20
55008;DHT22;40902;45.116;21.296;2023-04-19T14:32:26;410.50;2355.20
55008;DHT22;40902;45.116;21.296;2023-04-19T14:34:53;410.50;2355.20
55008;DHT22;40902;45.116;21.296;2023-04-19T14:37:21;410.30;2355.20
55008;DHT22;40902;45.116;21.296;2023-04-19T14:39:47;410.20;2355.20
55008;DHT22;40902;45.116;21.296;2023-04-19T14:42:13;410.20;2355.20
55008;DHT22;40902;45.116;21.296;2023-04-19T14:44:39;410.10;2355.20
55008;DHT22;40902;45.116;21.296;2023-04-19T14:47:05;410.00;2355.20
55008;DHT22;40902;45.116;21.296;2023-04-19T14:49:31;410.00;2355.20
55008;DHT22;40902;45.116;21.296;2023-04-19T14:51:56;409.70;2355.20
55008;DHT22;40902;45.116;21.296;2023-04-19T14:54:22;409.70;2355.20
55008;DHT22;40902;45.116;21.296;2023-04-19T14:56:48;409.60;2355.20
55008;DHT22;40902;45.116;21.296;2023-04-19T14:59:14;409.60;2355.20
55008;DHT22;40902;45.116;21.296;2023-04-19T15:01:40;409.70;2355.20
55008;DHT22;40902;45.116;21.296;2023-04-19T15:04:06;409.70;2355.20
55008;DHT22;40902;45.116;21.296;2023-04-19T15:06:32;409.80;2355.20
55008;DHT22;40902;45.116;21.296;2023-04-19T15:08:58;409.80;2355.20
55008;DHT22;40902;45.116;21.296;2023-04-19T15:11:23;410.00;2355.20
55008;DHT22;40902;45.116;21.296;2023-04-19T15:13:49;410.00;2355.20
55008;DHT22;40902;45.116;21.296;2023-04-19T15:16:15;410.10;2355.20
55008;DHT22;40902;45.116;21.296;2023-04-19T15:18:41;410.10;2355.20
55008;DHT22;40902;45.116;21.296;2023-04-19T15:21:06;410.00;2355.20
55008;DHT22;40902;45.116;21.296;2023-04-19T15:23:32;409.90;2355.20
55008;DHT22;40902;45.116;21.296;2023-04-19T15:25:58;409.80;2355.20
55008;DHT22;40902;45.116;21.296;2023-04-19T15:28:23;409.70;2355.20
55008;DHT22;40902;45.116;21.296;2023-04-19T15:31:00;409.60;2355.20
55008;DHT22;40902;45.116;21.296;2023-04-19T15:33:26;384.80;2329.60
55008;DHT22;40902;45.116;21.296;2023-04-19T15:35:53;384.50;2329.60
55008;DHT22;40902;45.116;21.296;2023-04-19T15:38:26;384.30;2329.60
55008;DHT22;40902;45.116;21.296;2023-04-19T15:40:53;384.20;2329.60